Estación de Morza

Ultimos registro cada 15 minutos 84
Estación Fecha / Hora Temperatura Humedad Lluvia Velocidad Dirección Radiación Presion
84 Morza 05-09-2026 20:45 7,9 85 0 0 261 0 1014,6
83 Morza 05-09-2026 20:30 8,3 85 0 0,4 261 0 1014,4
82 Morza 05-09-2026 20:15 8,6 83 0 0 260 0 1014,7
81 Morza 05-09-2026 20:00 8,9 82 0 0 269 0 1014,6
80 Morza 05-09-2026 19:45 9,5 78 0 0 277 0 1014,5
79 Morza 05-09-2026 19:30 10,3 73 0 0 277 0 1014,7
78 Morza 05-09-2026 19:15 11,4 69 0 0 277 0 1014,6
77 Morza 05-09-2026 19:00 12,6 65 0 0 277 0 1014,6
76 Morza 05-09-2026 18:45 13,7 60 0 0 277 0 1014,6
75 Morza 05-09-2026 18:30 14,9 57 0 0 277 0 1014,7
74 Morza 05-09-2026 18:15 16,3 54 0 0 277 7 1014,4
73 Morza 05-09-2026 18:00 16,9 54 0 0 279 14 1014,4
72 Morza 05-09-2026 17:45 17,1 52 0 0,4 253 44 1014,3
71 Morza 05-09-2026 17:30 17,4 54 0 0 289 84 1014,3
70 Morza 05-09-2026 17:15 17,6 52 0 0,4 307 137 1014,4
69 Morza 05-09-2026 17:00 17,9 55 0 0,9 282 192 1014,3
68 Morza 05-09-2026 16:45 17,6 57 0 0,4 296 237 1014,3
67 Morza 05-09-2026 16:30 17,6 59 0 0,4 280 283 1014,4
66 Morza 05-09-2026 16:15 17,6 59 0 0,4 284 325 1014,4
65 Morza 05-09-2026 16:00 17,2 57 0 0,9 277 367 1014,4
64 Morza 05-09-2026 15:45 17,2 55 0 1,8 273 406 1014,3
63 Morza 05-09-2026 15:30 17,1 60 0 0,4 253 443 1014,4
62 Morza 05-09-2026 15:15 16,5 60 0 1,8 286 478 1014,4
61 Morza 05-09-2026 15:00 15,7 65 0 0,9 251 510 1014,5
60 Morza 05-09-2026 14:45 15,3 63 0 0,4 344 540 1014,6
59 Morza 05-09-2026 14:30 14,6 68 0 1,8 294 566 1014,6
58 Morza 05-09-2026 14:15 14,2 69 0 0,4 326 587 1014,8
57 Morza 05-09-2026 14:00 13,7 78 0 0,9 321 608 1015
56 Morza 05-09-2026 13:45 12,9 75 0 0 313 624 1015,3
55 Morza 05-09-2026 13:30 12,3 80 0 0,9 290 638 1015,6
54 Morza 05-09-2026 13:15 11,4 80 0 0,4 287 647 1015,8
53 Morza 05-09-2026 13:00 10,6 83 0 1,8 280 652 1016
52 Morza 05-09-2026 12:45 9,8 85 0 0,9 276 656 1016,4
51 Morza 05-09-2026 12:30 9,1 85 0 0 280 645 1016,6
50 Morza 05-09-2026 12:15 8,3 89 0 0,4 321 652 1016,8
49 Morza 05-09-2026 12:00 7,9 90 0 0,4 298 657 1017
48 Morza 05-09-2026 11:45 7,1 93 0 1,8 284 691 1017,4
47 Morza 05-09-2026 11:30 6,4 95 0 0 286 369 1017,5
46 Morza 05-09-2026 11:15 6,1 96 0 0 253 244 1017,8
45 Morza 05-09-2026 11:00 5,6 96 0 0,4 92 248 1017,7
44 Morza 05-09-2026 10:45 5,2 96 0 0,4 313 199 1017,6
43 Morza 05-09-2026 10:30 5,2 97 0 0 256 165 1017,7
42 Morza 05-09-2026 10:15 4,8 96 0 0 280 146 1017,8
41 Morza 05-09-2026 10:00 4,7 96 0 0 261 132 1017,9
40 Morza 05-09-2026 09:45 4,6 96 0 0 11 109 1017,8
39 Morza 05-09-2026 09:30 4,4 96 0 0,9 88 125 1017,8
38 Morza 05-09-2026 09:15 4,2 96 0 0 278 93 1018
37 Morza 05-09-2026 09:00 4,3 96 0 0 186 74 1018,1
36 Morza 05-09-2026 08:45 4 96 0 0 24 69 1018,1
35 Morza 05-09-2026 08:30 3,9 96 0 0,4 223 56 1018,1
34 Morza 05-09-2026 08:15 3,9 96 0 0 103 40 1018,2
33 Morza 05-09-2026 08:00 3,9 96 0 0 63 33 1018,3
32 Morza 05-09-2026 07:45 3,9 96 0 0 63 26 1018,3
31 Morza 05-09-2026 07:30 3,8 96 0 0 63 16 1018,3
30 Morza 05-09-2026 07:15 3,6 96 0 0 109 5 1018,4
29 Morza 05-09-2026 07:00 3,3 96 0 0,4 106 0 1018,7
28 Morza 05-09-2026 06:45 3,1 96 0 0 129 0 1018,3
27 Morza 05-09-2026 06:30 2,7 96 0 0 140 0 1018,2
26 Morza 05-09-2026 06:15 2,4 96 0 0 140 0 1018,1
25 Morza 05-09-2026 06:00 2,2 96 0 0 140 0 1018,1
24 Morza 05-09-2026 05:45 1,7 96 0 0 140 0 1018,2
23 Morza 05-09-2026 05:30 1,4 96 0 0 140 0 1017,9
22 Morza 05-09-2026 05:15 1,1 95 0 0 140 0 1017,9
21 Morza 05-09-2026 05:00 0,9 95 0 0 140 0 1018,1
20 Morza 05-09-2026 04:45 1,1 94 0 0 140 0 1018,2
19 Morza 05-09-2026 04:30 1,3 95 0 0 140 0 1018,2
18 Morza 05-09-2026 04:15 1,4 94 0 0 140 0 1018,4
17 Morza 05-09-2026 04:00 1,5 94 0 0 140 0 1018,4
16 Morza 05-09-2026 03:45 1,6 95 0 0 125 0 1018,4
15 Morza 05-09-2026 03:30 1,6 95 0 0 125 0 1018,7
14 Morza 05-09-2026 03:15 1,6 94 0 0 125 0 1018,9
13 Morza 05-09-2026 03:00 1,8 94 0 0 125 0 1019,2
12 Morza 05-09-2026 02:45 2 94 0 0 125 0 1019,3
11 Morza 05-09-2026 02:30 2,1 94 0 0 125 0 1019,5
10 Morza 05-09-2026 02:15 2,3 94 0 0,4 125 0 1019,7
9 Morza 05-09-2026 02:00 2,4 93 0 0 125 0 1019,7
8 Morza 05-09-2026 01:45 2,7 93 0 0 125 0 1019,8
7 Morza 05-09-2026 01:30 3 93 0 0 125 0 1020,1
6 Morza 05-09-2026 01:15 3,2 93 0 0 125 0 1020,3
5 Morza 05-09-2026 01:00 3,3 93 0 0 125 0 1020,4
4 Morza 05-09-2026 00:45 3,4 93 0 0 125 0 1020,7
3 Morza 05-09-2026 00:30 3,5 92 0 0 125 0 1020,9
2 Morza 05-09-2026 00:15 3,6 91 0 0 125 0 1020,9
1 Morza 05-09-2026 00:00 3,9 91 0 0 125 0 1021